Lowpoint, Illinois
Current Conditions -  °F | °C
As of 3:15 AM on Monday 20 Oct 2014 (Local Time) from KC75 Reporting Station
Clear Clear  
Wind Chill: 51°   Ceiling: Unl
Heat Index: 51°   Visibility: 10mi
Dew Point: 45°   Wind: 7mph
Humidity: 80%   Direction: 200°SSW
Pressure: 29.86"   Gusts: NA
Location:  40.87°N, 89.35°W
Report Text: KC75 200815Z AUTO 20006KT 10SM CLR 11/07 A2986 RMK AO2 T01060072
Loading
Personal Weather Stations






























Interactive Weather Map
Tropical Storm Tracking
New forecast layout! Learn more

10-Day Weather Forecast

Advertisements
Track Severe Weather on mobile